Time;durP1;ratioP1;P1;durP2;ratioP2;P2;SDS_P1;SDS_P2;PMS_P1;PMS_P2;Temp;Humidity;BMP_temperature;BMP_pressure;BME280_temperature;BME280_humidity;BME280_pressure;Samples;Min_cycle;Max_cycle;Signal;HPM_P1;HPM_P2
2021/04/06 00:01:44;;;;;;;3.45;1.10;;;3.00;56.50;;;;;;5006927;28;20081;-73
2021/04/06 00:04:19;;;;;;;3.63;1.00;;;3.00;56.30;;;;;;5007467;28;20074;-74
2021/04/06 00:06:50;;;;;;;2.58;0.95;;;2.80;56.30;;;;;;5006993;28;20061;-73
2021/04/06 00:09:20;;;;;;;4.80;0.60;;;3.00;56.20;;;;;;5006151;28;20131;-74
2021/04/06 00:11:48;;;;;;;2.42;0.80;;;2.70;56.10;;;;;;5006438;28;20136;-73
2021/04/06 00:14:17;;;;;;;2.35;0.82;;;3.00;56.00;;;;;;5020708;28;20082;-74
2021/04/06 00:16:49;;;;;;;1.93;1.00;;;2.70;56.10;;;;;;5006460;28;20100;-73
2021/04/06 00:19:17;;;;;;;4.95;0.68;;;2.70;56.30;;;;;;5006618;28;20089;-73
2021/04/06 00:21:47;;;;;;;2.17;0.82;;;2.70;56.10;;;;;;5005572;28;20144;-73
2021/04/06 00:24:15;;;;;;;3.55;0.93;;;2.80;56.40;;;;;;5006211;28;20041;-73
2021/04/06 00:26:53;;;;;;;4.93;1.10;;;2.80;56.70;;;;;;5006242;28;20133;-74
2021/04/06 00:29:24;;;;;;;5.38;0.77;;;2.60;56.40;;;;;;5005553;28;20559;-74
2021/04/06 00:31:57;;;;;;;1.85;0.63;;;2.80;56.60;;;;;;5006807;28;20077;-74
2021/04/06 00:34:25;;;;;;;1.60;0.73;;;2.80;56.80;;;;;;5006486;28;20081;-73
2021/04/06 00:36:53;;;;;;;2.53;0.73;;;2.50;56.30;;;;;;5006917;28;20073;-73
2021/04/06 00:39:28;;;;;;;5.13;1.10;;;2.60;56.50;;;;;;5006105;28;20137;-73
2021/04/06 00:42:17;;;;;;;3.70;0.85;;;2.50;56.80;;;;;;5020638;28;20146;-73
2021/04/06 00:44:48;;;;;;;4.07;0.80;;;2.80;57.30;;;;;;5006131;28;20057;-73
2021/04/06 00:47:22;;;;;;;2.92;1.38;;;2.50;57.10;;;;;;5022177;28;20045;-73
2021/04/06 00:49:48;;;;;;;1.67;0.82;;;2.70;57.30;;;;;;5005460;28;20073;-73
2021/04/06 00:52:16;;;;;;;6.60;0.95;;;2.40;57.20;;;;;;5006679;28;20062;-74
2021/04/06 00:54:42;;;;;;;2.33;0.88;;;2.20;57.10;;;;;;5006947;28;20431;-73
2021/04/06 00:57:13;;;;;;;4.78;1.30;;;2.40;57.20;;;;;;5004756;28;20108;-74
2021/04/06 01:00:08;;;;;;;2.03;1.10;;;2.30;57.10;;;;;;5005861;28;20077;-73
2021/04/06 01:02:34;;;;;;;5.45;0.90;;;2.60;57.60;;;;;;5005812;28;20155;-72
2021/04/06 01:05:05;;;;;;;6.90;1.08;;;2.50;57.60;;;;;;5005207;28;20145;-73
2021/04/06 01:07:34;;;;;;;;;;;2.20;57.30;;;;;;5006234;28;20085;-73
2021/04/06 01:10:02;;;;;;;5.60;1.13;;;2.60;57.70;;;;;;5005243;28;19968;-73
2021/04/06 01:12:29;;;;;;;2.15;0.70;;;2.10;57.50;;;;;;5018812;28;20065;-73
2021/04/06 01:14:56;;;;;;;5.45;0.80;;;2.30;57.30;;;;;;5004627;28;20077;-72
2021/04/06 01:17:27;;;;;;;4.90;0.90;;;2.30;57.60;;;;;;5005153;28;20103;-73
2021/04/06 01:19:55;;;;;;;6.07;0.98;;;2.20;57.40;;;;;;5005580;28;20108;-73
2021/04/06 01:22:21;;;;;;;3.22;0.80;;;2.30;57.80;;;;;;5006769;28;20129;-73
2021/04/06 01:24:48;;;;;;;3.55;0.98;;;2.30;57.70;;;;;;5019612;28;20129;-73
2021/04/06 01:27:17;;;;;;;3.40;0.68;;;2.30;57.60;;;;;;5006019;28;20108;-73
2021/04/06 01:29:53;;;;;;;3.72;1.02;;;2.40;57.40;;;;;;5004409;28;20181;-73
2021/04/06 01:32:21;;;;;;;2.42;0.90;;;2.30;57.50;;;;;;5004634;28;20153;-73
2021/04/06 01:34:48;;;;;;;5.72;1.40;;;2.40;57.60;;;;;;5006144;28;20056;-73
2021/04/06 01:37:20;;;;;;;7.22;1.30;;;2.40;57.70;;;;;;5005756;28;20054;-72
2021/04/06 01:39:49;;;;;;;;;;;2.30;57.50;;;;;;5019679;28;20141;-73
2021/04/06 01:42:16;;;;;;;1.63;0.90;;;2.40;57.90;;;;;;5005812;28;20005;-73
2021/04/06 01:44:46;;;;;;;6.93;1.20;;;2.40;57.90;;;;;;5006336;28;20112;-73
2021/04/06 01:47:14;;;;;;;8.85;1.70;;;2.20;58.00;;;;;;5004216;28;20050;-73
2021/04/06 01:49:42;;;;;;;4.55;1.05;;;2.30;58.10;;;;;;5005376;28;20485;-73
2021/04/06 01:52:09;;;;;;;6.60;1.23;;;2.40;57.90;;;;;;5019716;28;20065;-73
2021/04/06 01:54:38;;;;;;;4.40;1.67;;;2.40;58.20;;;;;;5004622;28;20107;-73
2021/04/06 01:57:15;;;;;;;4.78;0.93;;;2.30;58.20;;;;;;5006165;28;20085;-73
2021/04/06 01:59:47;;;;;;;1.80;0.90;;;2.30;58.10;;;;;;5004802;28;20404;-73
2021/04/06 02:02:13;;;;;;;5.07;1.30;;;2.40;58.80;;;;;;5004853;28;20497;-72
2021/04/06 02:04:43;;;;;;;11.57;1.55;;;2.20;58.80;;;;;;5005566;28;20460;-73
2021/04/06 02:07:12;;;;;;;4.82;1.30;;;2.30;59.20;;;;;;5016515;28;20128;-73
2021/04/06 02:09:40;;;;;;;12.10;2.47;;;2.10;59.60;;;;;;5019211;28;20136;-73
2021/04/06 02:12:07;;;;;;;3.17;1.27;;;2.10;59.90;;;;;;5003631;28;20050;-73
2021/04/06 02:14:35;;;;;;;5.28;1.83;;;2.20;60.20;;;;;;5003983;28;20077;-72
2021/04/06 02:17:05;;;;;;;6.05;1.40;;;2.00;60.00;;;;;;5004651;28;20493;-73
2021/04/06 02:19:41;;;;;;;9.30;0.88;;;2.30;60.20;;;;;;5018321;28;20069;-72
2021/04/06 02:22:14;;;;;;;5.28;1.20;;;1.90;60.50;;;;;;5004144;28;20150;-73
2021/04/06 02:24:48;;;;;;;4.78;1.17;;;1.70;60.90;;;;;;5005254;28;20489;-73
2021/04/06 02:27:29;;;;;;;4.78;1.17;;;1.90;61.20;;;;;;5005023;28;20758;-73
2021/04/06 02:30:01;;;;;;;4.65;0.95;;;2.00;61.00;;;;;;5003251;28;20077;-73
2021/04/06 02:32:30;;;;;;;3.47;0.93;;;2.20;60.60;;;;;;5005561;28;20703;-73
2021/04/06 02:35:03;;;;;;;7.80;0.95;;;2.10;60.80;;;;;;5002750;28;20951;-73
2021/04/06 02:37:32;;;;;;;4.63;1.00;;;2.20;61.30;;;;;;5003958;28;20081;-73
2021/04/06 02:40:00;;;;;;;5.95;1.05;;;2.20;60.40;;;;;;5004208;28;20053;-73
2021/04/06 02:42:31;;;;;;;4.35;0.88;;;2.10;61.60;;;;;;5017179;28;20054;-73
2021/04/06 02:45:13;;;;;;;4.35;1.10;;;2.20;60.90;;;;;;5003436;28;20086;-73
2021/04/06 02:47:48;;;;;;;4.25;1.02;;;2.10;61.10;;;;;;5005615;28;20127;-74
2021/04/06 02:50:22;;;;;;;7.28;1.52;;;2.20;61.30;;;;;;5008454;28;20153;-74
2021/04/06 02:52:50;;;;;;;4.82;1.20;;;2.50;61.30;;;;;;5003442;28;20112;-73
2021/04/06 02:55:17;;;;;;;5.88;1.30;;;2.20;61.00;;;;;;5008898;28;20060;-73
2021/04/06 02:57:47;;;;;;;3.20;1.25;;;2.30;61.60;;;;;;5007966;28;20054;-74
2021/04/06 03:00:31;;;;;;;9.48;1.58;;;2.70;61.70;;;;;;5005816;28;20166;-73
2021/04/06 03:03:04;;;;;;;4.00;1.50;;;2.40;61.70;;;;;;5007695;28;20147;-74
2021/04/06 03:05:37;;;;;;;7.10;1.33;;;2.30;62.50;;;;;;5008265;28;20073;-74
2021/04/06 03:08:05;;;;;;;4.80;1.42;;;2.20;62.30;;;;;;5021966;28;20053;-73
2021/04/06 03:10:34;;;;;;;3.85;1.45;;;2.00;62.80;;;;;;5018758;28;20528;-74
2021/04/06 03:13:12;;;;;;;8.30;1.33;;;2.10;63.90;;;;;;5006590;28;20042;-72
2021/04/06 03:15:41;;;;;;;5.57;1.42;;;1.90;64.00;;;;;;5005818;28;20152;-73
2021/04/06 03:18:09;;;;;;;5.68;1.17;;;2.30;64.30;;;;;;5007638;28;20100;-72
2021/04/06 03:20:37;;;;;;;3.20;1.30;;;2.10;64.20;;;;;;5007122;28;20867;-72
2021/04/06 03:23:05;;;;;;;5.60;1.20;;;1.90;64.20;;;;;;5007660;28;20453;-72
2021/04/06 03:25:33;;;;;;;5.88;1.48;;;2.10;65.20;;;;;;5008126;28;20489;-72
2021/04/06 03:28:10;;;;;;;3.63;1.17;;;1.90;65.30;;;;;;5007060;28;20085;-72
2021/04/06 03:30:38;;;;;;;9.70;1.80;;;1.80;65.50;;;;;;5005865;28;20188;-73
2021/04/06 03:33:11;;;;;;;9.57;1.63;;;2.00;65.80;;;;;;5008118;28;20068;-72
2021/04/06 03:35:40;;;;;;;5.38;1.25;;;2.10;65.10;;;;;;5006015;28;20142;-72
2021/04/06 03:38:08;;;;;;;6.28;1.40;;;2.30;65.20;;;;;;5007585;28;20069;-73
2021/04/06 03:40:37;;;;;;;4.05;1.40;;;2.00;65.00;;;;;;5006630;28;20166;-73
2021/04/06 03:43:15;;;;;;;2.40;1.27;;;2.30;65.70;;;;;;5021818;28;20595;-72
2021/04/06 03:46:07;;;;;;;5.60;1.27;;;2.60;65.80;;;;;;5007810;28;20124;-72
2021/04/06 03:48:36;;;;;;;6.40;1.02;;;2.30;65.90;;;;;;5007101;28;20104;-72
2021/04/06 03:51:29;;;;;;;8.88;1.83;;;2.60;65.40;;;;;;5006326;28;20054;-73
2021/04/06 03:53:56;;;;;;;5.95;1.50;;;2.50;65.50;;;;;;5021548;28;20054;-72
2021/04/06 03:56:30;;;;;;;4.85;1.50;;;2.50;65.40;;;;;;5007397;28;20058;-73
2021/04/06 03:58:59;;;;;;;11.13;2.17;;;2.30;65.30;;;;;;5004423;28;20077;-73
2021/04/06 04:01:26;;;;;;;5.82;2.00;;;2.00;66.10;;;;;;5007143;28;20069;-72
2021/04/06 04:03:53;;;;;;;6.03;1.55;;;2.20;66.30;;;;;;5007957;28;20129;-74
2021/04/06 04:06:31;;;;;;;6.20;1.40;;;2.50;65.40;;;;;;5006762;28;20509;-74
2021/04/06 04:08:57;;;;;;;3.63;1.67;;;2.40;66.00;;;;;;5007748;28;20180;-74
2021/04/06 04:11:24;;;;;;;6.38;2.15;;;2.10;65.90;;;;;;5004798;28;20513;-74
2021/04/06 04:13:50;;;;;;;6.53;1.52;;;2.20;65.80;;;;;;5005015;28;20140;-74
2021/04/06 04:16:17;;;;;;;3.53;1.50;;;2.40;66.10;;;;;;5006977;28;20081;-72
2021/04/06 04:18:43;;;;;;;9.07;1.88;;;2.20;65.20;;;;;;5005703;28;20057;-72
2021/04/06 04:21:12;;;;;;;5.07;1.70;;;2.20;66.20;;;;;;5005918;28;20133;-72
2021/04/06 04:23:38;;;;;;;7.05;1.80;;;2.40;66.50;;;;;;5022300;28;20050;-72
2021/04/06 04:26:06;;;;;;;7.85;1.60;;;2.20;65.90;;;;;;5005596;28;20054;-72
2021/04/06 04:28:32;;;;;;;9.30;1.60;;;2.10;66.00;;;;;;5021629;28;20169;-72
2021/04/06 04:31:00;;;;;;;3.75;1.63;;;2.20;66.50;;;;;;5004708;28;20061;-73
2021/04/06 04:33:27;;;;;;;5.35;1.52;;;2.30;66.60;;;;;;5006543;28;20077;-73
2021/04/06 04:35:53;;;;;;;7.03;1.45;;;2.20;66.80;;;;;;5007556;28;20527;-73
2021/04/06 04:38:19;;;;;;;7.80;2.17;;;2.10;66.60;;;;;;5004757;28;20124;-73
2021/04/06 04:40:45;;;;;;;4.55;1.35;;;2.10;66.50;;;;;;5018529;28;20081;-72
2021/04/06 04:43:13;;;;;;;7.68;1.65;;;2.20;66.90;;;;;;5022327;28;20077;-72
2021/04/06 04:45:40;;;;;;;7.88;1.58;;;2.10;66.90;;;;;;5004726;28;21373;-73
2021/04/06 04:48:06;;;;;;;3.88;1.90;;;2.10;67.10;;;;;;5006112;28;20085;-73
2021/04/06 04:50:33;;;;;;;12.07;2.08;;;2.50;66.80;;;;;;5004651;28;20072;-73
2021/04/06 04:52:59;;;;;;;5.75;1.77;;;2.30;66.60;;;;;;5005539;28;20160;-73
2021/04/06 04:55:26;;;;;;;9.52;1.80;;;2.30;66.90;;;;;;5007263;28;20046;-73
2021/04/06 04:57:54;;;;;;;4.88;1.95;;;2.10;66.50;;;;;;5004944;28;20131;-73
2021/04/06 05:00:21;;;;;;;12.50;1.95;;;2.20;67.30;;;;;;5003587;28;20137;-72
2021/04/06 05:02:47;;;;;;;8.20;1.58;;;2.50;67.80;;;;;;5006425;28;20073;-73
2021/04/06 05:05:17;;;;;;;8.60;1.63;;;2.00;67.50;;;;;;5005615;28;20466;-73
2021/04/06 05:07:44;;;;;;;9.02;1.70;;;2.20;67.80;;;;;;5005843;28;20049;-73
2021/04/06 05:10:13;;;;;;;9.02;1.98;;;2.00;67.90;;;;;;5005196;28;20149;-73
2021/04/06 05:12:40;;;;;;;4.88;1.48;;;2.20;67.60;;;;;;5003982;28;20058;-73
2021/04/06 05:15:07;;;;;;;8.57;2.05;;;2.20;67.60;;;;;;5021665;28;20049;-74
2021/04/06 05:17:34;;;;;;;7.05;1.50;;;2.30;67.70;;;;;;5005618;28;20064;-73
2021/04/06 05:20:02;;;;;;;4.32;1.52;;;2.40;67.60;;;;;;5015139;28;20107;-73
2021/04/06 05:22:29;;;;;;;10.13;1.85;;;2.50;66.80;;;;;;5006102;28;20050;-73
2021/04/06 05:24:56;;;;;;;8.45;1.88;;;2.60;66.80;;;;;;5004975;28;20049;-75
2021/04/06 05:27:22;;;;;;;5.50;1.67;;;2.70;67.10;;;;;;5005506;28;20135;-73
2021/04/06 05:29:48;;;;;;;5.28;1.45;;;2.50;66.80;;;;;;5005910;28;20136;-73
2021/04/06 05:32:15;;;;;;;8.55;1.90;;;2.40;66.90;;;;;;5003762;28;20089;-73
2021/04/06 05:34:41;;;;;;;12.30;2.20;;;2.50;67.30;;;;;;5005483;28;20478;-73
2021/04/06 05:37:08;;;;;;;7.55;1.77;;;2.30;67.50;;;;;;5004845;28;20136;-74
2021/04/06 05:39:34;;;;;;;6.50;1.63;;;2.70;67.50;;;;;;5004942;28;20096;-72
2021/04/06 05:42:00;;;;;;;9.35;2.17;;;2.30;67.40;;;;;;5004583;28;20127;-72
2021/04/06 05:44:28;;;;;;;7.53;2.10;;;2.40;67.00;;;;;;5004621;28;20137;-73
2021/04/06 05:46:59;;;;;;;10.80;2.75;;;2.40;66.80;;;;;;5005155;28;21198;-73
2021/04/06 05:49:29;;;;;;;7.20;1.90;;;2.30;66.90;;;;;;5005141;28;20145;-73
2021/04/06 05:51:56;;;;;;;;;;;2.40;66.70;;;;;;5005292;28;20107;-73
2021/04/06 05:54:23;;;;;;;11.43;2.38;;;2.50;66.50;;;;;;5020756;28;19921;-74
2021/04/06 05:56:50;;;;;;;13.30;2.30;;;2.40;65.90;;;;;;5004255;28;21379;-73
2021/04/06 05:59:16;;;;;;;7.05;2.53;;;2.20;66.60;;;;;;5003608;28;20053;-73
2021/04/06 06:01:44;;;;;;;8.02;2.80;;;2.30;66.50;;;;;;5004900;28;20073;-72
2021/04/06 06:04:15;;;;;;;6.68;2.72;;;2.20;66.80;;;;;;5004681;28;20073;-73
2021/04/06 06:06:42;;;;;;;8.07;1.27;;;2.40;67.00;;;;;;5004691;28;20463;-73
2021/04/06 06:09:10;;;;;;;2.40;1.35;;;2.30;66.50;;;;;;5004610;28;20050;-73
2021/04/06 06:11:59;;;;;;;5.55;1.83;;;2.00;67.20;;;;;;5003846;28;20077;-73
2021/04/06 06:14:51;;;;;;;6.13;1.80;;;2.30;67.00;;;;;;5004668;28;20599;-73
2021/04/06 06:17:25;;;;;;;10.73;2.45;;;2.10;67.30;;;;;;5004343;28;20057;-73
2021/04/06 06:19:56;;;;;;;10.27;2.50;;;2.50;67.20;;;;;;5004327;28;20161;-73
2021/04/06 06:22:31;;;;;;;8.05;2.30;;;2.20;66.60;;;;;;5004540;28;20053;-73
2021/04/06 06:25:05;;;;;;;8.25;2.05;;;2.60;66.60;;;;;;5005059;28;20561;-74
2021/04/06 06:27:39;;;;;;;11.52;2.75;;;2.50;66.10;;;;;;5003915;28;20082;-73
2021/04/06 06:30:33;;;;;;;8.77;2.75;;;2.60;66.00;;;;;;5018539;28;20060;-73
2021/04/06 06:33:23;;;;;;;15.02;3.67;;;2.80;66.10;;;;;;5015234;28;20054;-73
2021/04/06 06:36:00;;;;;;;7.60;2.60;;;2.70;65.50;;;;;;5004664;28;20054;-73
2021/04/06 06:38:30;;;;;;;9.10;2.85;;;3.00;65.30;;;;;;5003428;28;20305;-74
2021/04/06 06:41:10;;;;;;;11.38;2.05;;;3.20;65.10;;;;;;5015762;28;21459;-73
2021/04/06 06:43:38;;;;;;;5.57;2.05;;;2.70;65.80;;;;;;5004694;28;20144;-74
2021/04/06 06:46:19;;;;;;;12.18;1.95;;;3.30;66.60;;;;;;5003534;28;20064;-74
2021/04/06 06:48:54;;;;;;;6.38;2.10;;;2.90;65.60;;;;;;5004925;28;20377;-74
2021/04/06 06:51:28;;;;;;;8.73;1.67;;;3.00;65.80;;;;;;5004353;28;20048;-74
2021/04/06 06:53:55;;;;;;;5.10;1.67;;;3.40;65.40;;;;;;5003959;28;20133;-74
2021/04/06 06:56:36;;;;;;;5.97;2.03;;;3.30;65.10;;;;;;5004103;28;20539;-73
2021/04/06 06:59:04;;;;;;;9.35;2.10;;;3.10;65.00;;;;;;5004201;28;20149;-72
2021/04/06 07:01:32;;;;;;;5.90;2.00;;;3.10;65.10;;;;;;5018667;28;20141;-73
2021/04/06 07:04:05;;;;;;;7.68;1.75;;;3.00;65.20;;;;;;5005131;28;20115;-73
2021/04/06 07:06:38;;;;;;;7.13;2.10;;;3.00;65.50;;;;;;5003792;28;20093;-73
2021/04/06 07:09:23;;;;;;;8.30;1.48;;;3.50;65.60;;;;;;5003375;28;20409;-72
2021/04/06 07:11:52;;;;;;;4.95;2.08;;;3.50;65.70;;;;;;5002601;28;20153;-73
2021/04/06 07:14:24;;;;;;;9.38;1.90;;;3.50;64.50;;;;;;5004071;28;20058;-73
2021/04/06 07:16:56;;;;;;;8.80;1.88;;;3.80;65.40;;;;;;5001763;28;20077;-72
2021/04/06 07:19:22;;;;;;;9.88;2.42;;;3.70;64.60;;;;;;5004147;28;20053;-72
2021/04/06 07:21:55;;;;;;;4.60;1.85;;;3.40;64.30;;;;;;5003401;28;20493;-72
2021/04/06 07:24:39;;;;;;;8.05;2.08;;;3.20;64.50;;;;;;5003595;28;20104;-72
2021/04/06 07:27:12;;;;;;;5.78;2.63;;;3.80;64.30;;;;;;5004652;28;20119;-73
2021/04/06 07:29:40;;;;;;;15.43;1.98;;;3.60;63.90;;;;;;5002526;28;20253;-72
2021/04/06 07:32:14;;;;;;;4.07;1.70;;;3.90;63.40;;;;;;5004023;28;20050;-74
2021/04/06 07:34:43;;;;;;;9.57;2.42;;;4.10;63.50;;;;;;5007430;28;20049;-73
2021/04/06 07:37:10;;;;;;;6.50;1.85;;;3.80;64.00;;;;;;5008025;28;20053;-73
2021/04/06 07:39:38;;;;;;;9.43;2.50;;;4.00;64.10;;;;;;5006636;28;20077;-73
2021/04/06 07:42:05;;;;;;;11.00;2.92;;;3.80;64.30;;;;;;5008044;28;20149;-73
2021/04/06 07:44:36;;;;;;;6.20;2.17;;;3.80;64.30;;;;;;5021699;28;20112;-73
2021/04/06 07:47:03;;;;;;;5.60;2.20;;;3.80;64.30;;;;;;5018777;28;20115;-73
2021/04/06 07:49:30;;;;;;;8.90;2.63;;;3.90;64.10;;;;;;5022495;28;20504;-73
2021/04/06 07:52:00;;;;;;;9.20;2.47;;;3.80;64.70;;;;;;5022021;28;20085;-73
2021/04/06 07:54:46;;;;;;;9.20;2.08;;;3.70;64.60;;;;;;5017138;28;20390;-73
2021/04/06 07:57:13;;;;;;;10.43;2.40;;;3.80;64.30;;;;;;5007232;28;20049;-73
2021/04/06 07:59:43;;;;;;;7.93;2.53;;;4.00;63.60;;;;;;5020958;28;20180;-74
2021/04/06 08:02:10;;;;;;;8.23;2.92;;;3.90;64.40;;;;;;5006620;28;20056;-73
2021/04/06 08:04:47;;;;;;;5.68;1.65;;;3.80;64.30;;;;;;5006849;28;20054;-74
2021/04/06 08:07:19;;;;;;;6.95;2.80;;;3.70;64.80;;;;;;5021283;28;20058;-75
2021/04/06 08:09:49;;;;;;;8.80;2.58;;;4.10;64.90;;;;;;5021521;28;20058;-73
2021/04/06 08:12:30;;;;;;;4.00;2.25;;;4.30;63.30;;;;;;5020973;28;20088;-73
2021/04/06 08:15:00;;;;;;;10.20;2.63;;;4.60;62.70;;;;;;5006571;28;20081;-73
2021/04/06 08:17:29;;;;;;;7.93;2.17;;;4.90;62.00;;;;;;5007070;28;20085;-73
2021/04/06 08:20:07;;;;;;;5.35;2.55;;;4.80;62.10;;;;;;5020386;28;20320;-74
2021/04/06 08:22:49;;;;;;;8.60;2.08;;;4.70;62.00;;;;;;5021828;28;20132;-74
2021/04/06 08:25:17;;;;;;;7.40;2.15;;;4.80;60.60;;;;;;5007502;28;20131;-73
2021/04/06 08:27:51;;;;;;;6.32;2.00;;;4.40;62.40;;;;;;5005935;28;20062;-73
2021/04/06 08:30:27;;;;;;;6.57;2.67;;;4.40;62.80;;;;;;5005673;28;20070;-72
2021/04/06 08:33:02;;;;;;;3.30;1.77;;;4.20;63.20;;;;;;5007328;28;20105;-73
2021/04/06 08:35:47;;;;;;;3.58;1.25;;;4.20;63.20;;;;;;5005372;28;20050;-74
2021/04/06 08:38:23;;;;;;;5.43;2.00;;;4.00;63.80;;;;;;5021275;28;20053;-74
2021/04/06 08:41:00;;;;;;;6.03;1.98;;;4.40;64.30;;;;;;5021019;28;20050;-73
2021/04/06 08:43:55;;;;;;;8.98;2.03;;;4.50;64.50;;;;;;5006463;28;20815;-73
2021/04/06 08:46:35;;;;;;;6.70;2.38;;;4.20;64.20;;;;;;4999630;28;20068;-73
2021/04/06 08:49:09;;;;;;;4.38;1.92;;;4.80;63.70;;;;;;5006833;28;20216;-73
2021/04/06 08:51:51;;;;;;;6.57;2.35;;;4.50;63.80;;;;;;5006085;28;20131;-73
2021/04/06 08:54:35;;;;;;;7.50;2.33;;;4.80;63.40;;;;;;5005695;28;20145;-73
2021/04/06 08:57:05;;;;;;;11.13;2.22;;;4.90;62.70;;;;;;5006766;28;20100;-73
2021/04/06 08:59:37;;;;;;;5.43;2.20;;;4.80;63.80;;;;;;5005835;28;20097;-73
2021/04/06 09:02:03;;;;;;;7.70;2.13;;;4.80;62.50;;;;;;5019902;28;20224;-73
2021/04/06 09:04:31;;;;;;;10.48;2.40;;;4.50;63.80;;;;;;5021902;28;20133;-73
2021/04/06 09:06:57;;;;;;;2.75;0.93;;;4.60;63.50;;;;;;5005115;28;20062;-72
2021/04/06 09:09:28;;;;;;;9.00;2.63;;;4.30;63.90;;;;;;5004947;28;20078;-73
2021/04/06 09:11:57;;;;;;;10.40;2.65;;;4.30;67.70;;;;;;5006289;28;20100;-74
2021/04/06 09:14:25;;;;;;;6.72;2.17;;;4.60;70.00;;;;;;5004862;28;20057;-73
2021/04/06 09:16:53;;;;;;;9.18;2.70;;;4.60;72.80;;;;;;5005240;28;20133;-73
2021/04/06 09:19:22;;;;;;;6.82;2.28;;;4.60;68.70;;;;;;5006133;28;20077;-73
2021/04/06 09:21:59;;;;;;;7.95;2.55;;;4.60;73.40;;;;;;5005228;28;20099;-72
2021/04/06 09:24:27;;;;;;;13.70;2.88;;;4.30;80.30;;;;;;5005256;28;20049;-73
2021/04/06 09:26:55;;;;;;;11.82;2.50;;;4.20;75.70;;;;;;5006210;28;20180;-74
2021/04/06 09:29:27;;;;;;;10.23;2.30;;;4.20;75.40;;;;;;5004306;28;20717;-73
2021/04/06 09:31:58;;;;;;;11.57;2.58;;;4.00;73.80;;;;;;5005584;28;20085;-73
2021/04/06 09:34:26;;;;;;;10.13;3.17;;;3.80;74.90;;;;;;5005292;28;20227;-73
2021/04/06 09:36:55;;;;;;;8.52;3.30;;;4.10;76.80;;;;;;5004706;28;20053;-73
2021/04/06 09:39:23;;;;;;;10.35;3.50;;;4.50;78.80;;;;;;5005238;28;20155;-73
2021/04/06 09:41:50;;;;;;;13.05;3.63;;;5.70;74.80;;;;;;5004984;28;20108;-73
2021/04/06 09:44:22;;;;;;;14.30;4.20;;;6.30;66.90;;;;;;5019837;28;20069;-74
2021/04/06 09:47:04;;;;;;;12.27;4.38;;;6.30;66.90;;;;;;5005248;28;20112;-74
2021/04/06 09:49:32;;;;;;;12.70;4.43;;;5.90;67.90;;;;;;5004431;28;20062;-74
2021/04/06 09:52:01;;;;;;;11.40;3.70;;;5.60;68.20;;;;;;5002909;28;20060;-73
2021/04/06 09:54:30;;;;;;;6.40;2.72;;;5.20;69.10;;;;;;5020668;28;20164;-73
2021/04/06 09:56:59;;;;;;;11.45;3.63;;;4.90;67.60;;;;;;5018694;28;20121;-73
2021/04/06 09:59:26;;;;;;;15.80;4.28;;;5.10;68.80;;;;;;5005237;28;20505;-73
2021/04/06 10:01:56;;;;;;;10.70;3.47;;;5.50;70.00;;;;;;5004859;28;20056;-73
2021/04/06 10:04:39;;;;;;;11.13;3.42;;;5.40;68.40;;;;;;5003943;28;20077;-72
2021/04/06 10:07:08;;;;;;;10.70;3.40;;;5.10;68.70;;;;;;5004876;28;20050;-73
2021/04/06 10:09:37;;;;;;;10.40;3.25;;;5.10;68.10;;;;;;5016140;28;20172;-73
2021/04/06 10:12:04;;;;;;;7.00;2.95;;;5.40;68.20;;;;;;5002595;28;20516;-73
2021/04/06 10:14:31;;;;;;;7.32;3.42;;;5.30;67.50;;;;;;5020068;28;20467;-74
2021/04/06 10:17:03;;;;;;;9.70;3.63;;;5.40;68.20;;;;;;5004443;28;20077;-73
2021/04/06 10:19:31;;;;;;;14.48;3.72;;;5.50;66.30;;;;;;5004302;28;20218;-74
2021/04/06 10:22:11;;;;;;;5.63;2.13;;;5.50;69.00;;;;;;5005440;28;20073;-74
2021/04/06 10:24:41;;;;;;;8.93;2.90;;;5.50;62.80;;;;;;5004452;28;20155;-74
2021/04/06 10:27:17;;;;;;;7.55;2.58;;;5.60;65.80;;;;;;5004422;28;20128;-74
2021/04/06 10:29:45;;;;;;;7.07;3.08;;;5.80;68.40;;;;;;5004562;28;20057;-73
2021/04/06 10:32:28;;;;;;;11.90;3.03;;;6.20;68.80;;;;;;5003094;28;20108;-73
2021/04/06 10:35:02;;;;;;;5.68;2.13;;;6.10;62.90;;;;;;5004652;28;20144;-73
2021/04/06 10:37:45;;;;;;;11.60;2.33;;;7.40;61.30;;;;;;5003998;28;20133;-73
2021/04/06 10:40:25;;;;;;;12.05;2.58;;;7.30;58.20;;;;;;5003580;28;20141;-73
2021/04/06 10:42:55;;;;;;;4.28;1.90;;;7.00;58.60;;;;;;5004365;28;20127;-74
2021/04/06 10:45:23;;;;;;;8.20;2.58;;;6.50;58.40;;;;;;5015085;28;20038;-73
2021/04/06 10:47:52;;;;;;;6.25;1.70;;;6.60;59.00;;;;;;5002658;28;20583;-73
2021/04/06 10:50:28;;;;;;;5.30;1.70;;;6.70;56.40;;;;;;5004068;28;20065;-73
2021/04/06 10:52:54;;;;;;;7.78;1.80;;;6.30;56.10;;;;;;5003780;28;20077;-75
2021/04/06 10:55:33;;;;;;;6.10;1.60;;;6.20;55.30;;;;;;5003352;28;20058;-74
2021/04/06 10:57:59;;;;;;;3.83;1.80;;;6.60;56.40;;;;;;5003903;28;20058;-74
2021/04/06 11:00:28;;;;;;;6.53;1.48;;;6.70;57.10;;;;;;5004570;28;20489;-72
2021/04/06 11:03:17;;;;;;;4.18;1.42;;;6.70;54.20;;;;;;5003273;28;20151;-73
2021/04/06 11:05:45;;;;;;;6.10;1.83;;;7.00;53.90;;;;;;5003963;28;20093;-74
2021/04/06 11:08:24;;;;;;;7.68;1.67;;;7.10;53.00;;;;;;5005041;28;20050;-74
2021/04/06 11:10:55;;;;;;;5.43;1.38;;;7.10;51.50;;;;;;5006716;28;20135;-73
2021/04/06 11:13:23;;;;;;;5.75;1.48;;;6.70;51.50;;;;;;5006444;28;20054;-72
2021/04/06 11:15:49;;;;;;;6.07;2.00;;;6.40;51.70;;;;;;5007641;28;20120;-73
2021/04/06 11:18:16;;;;;;;5.53;1.38;;;6.20;53.00;;;;;;5007097;28;20141;-73
2021/04/06 11:20:42;;;;;;;3.33;1.38;;;6.30;55.50;;;;;;5008608;28;20108;-73
2021/04/06 11:23:09;;;;;;;3.38;1.30;;;6.00;60.20;;;;;;5007227;28;20069;-73
2021/04/06 11:25:36;;;;;;;5.78;1.20;;;5.40;65.40;;;;;;5006870;28;20819;-72
2021/04/06 11:28:02;;;;;;;5.55;1.30;;;5.20;71.10;;;;;;5008679;28;20101;-73
2021/04/06 11:30:35;;;;;;;3.88;1.15;;;5.10;75.10;;;;;;5005757;28;20081;-73
2021/04/06 11:33:04;;;;;;;5.43;1.88;;;5.10;78.20;;;;;;5007847;28;20460;-72
2021/04/06 11:35:31;;;;;;;6.68;2.28;;;4.90;79.80;;;;;;5007395;28;20053;-73
2021/04/06 11:37:59;;;;;;;4.53;1.92;;;4.90;83.10;;;;;;5019064;28;20129;-72
2021/04/06 11:40:26;;;;;;;6.22;1.65;;;5.20;84.00;;;;;;5007735;28;20112;-72
2021/04/06 11:42:53;;;;;;;7.55;2.03;;;4.90;80.70;;;;;;5007714;28;20108;-75
2021/04/06 11:45:22;;;;;;;11.02;2.60;;;5.80;79.50;;;;;;5006757;28;20096;-72
2021/04/06 11:47:51;;;;;;;7.03;1.70;;;6.70;73.90;;;;;;5007915;28;20136;-73
2021/04/06 11:50:18;;;;;;;3.80;2.10;;;7.00;70.00;;;;;;5006450;28;20057;-73
2021/04/06 11:52:45;;;;;;;6.30;1.70;;;6.80;71.10;;;;;;5004926;28;20555;-74
2021/04/06 11:55:12;;;;;;;3.55;1.30;;;7.90;63.70;;;;;;5008166;28;20068;-73
2021/04/06 11:57:43;;;;;;;1.92;0.93;;;8.10;59.40;;;;;;5006474;28;20062;-73
2021/04/06 12:00:11;;;;;;;4.50;1.42;;;9.50;55.70;;;;;;5006659;28;21128;-73
2021/04/06 12:02:37;;;;;;;4.43;1.10;;;9.70;54.90;;;;;;5007173;28;20057;-74
2021/04/06 12:05:04;;;;;;;4.75;1.10;;;8.70;57.10;;;;;;5007866;28;20123;-74
2021/04/06 12:07:31;;;;;;;1.85;0.80;;;8.10;57.70;;;;;;5007092;28;20061;-73
2021/04/06 12:09:59;;;;;;;2.95;1.20;;;7.10;58.20;;;;;;5006217;28;20127;-74
2021/04/06 12:12:25;;;;;;;5.00;1.38;;;7.10;60.70;;;;;;5020319;28;20124;-73
2021/04/06 12:14:51;;;;;;;4.63;1.23;;;6.50;62.00;;;;;;5007236;28;20100;-73
2021/04/06 12:17:17;;;;;;;1.60;0.98;;;6.60;65.50;;;;;;5005842;28;20078;-73
2021/04/06 12:19:44;;;;;;;4.05;1.45;;;6.50;61.90;;;;;;5005440;28;20762;-72
2021/04/06 12:22:10;;;;;;;5.85;1.35;;;7.00;63.00;;;;;;5007968;28;20497;-72
2021/04/06 12:24:37;;;;;;;3.70;1.10;;;7.60;61.30;;;;;;5005818;28;21677;-72
2021/04/06 12:27:04;;;;;;;6.22;1.30;;;8.50;59.70;;;;;;5007319;28;20065;-73
2021/04/06 12:29:31;;;;;;;2.42;1.30;;;9.40;58.40;;;;;;5006341;28;20143;-73
2021/04/06 12:31:57;;;;;;;2.95;1.17;;;9.20;56.50;;;;;;5005779;28;20164;-74
2021/04/06 12:34:23;;;;;;;2.50;1.00;;;8.50;56.70;;;;;;5007916;28;20441;-73
2021/04/06 12:36:50;;;;;;;1.90;0.95;;;8.00;57.40;;;;;;5006130;28;20104;-73
2021/04/06 12:39:36;;;;;;;2.55;1.40;;;7.60;55.90;;;;;;5005893;28;20417;-73
2021/04/06 12:42:03;;;;;;;2.38;1.10;;;7.50;55.70;;;;;;5006488;28;20068;-72
2021/04/06 12:44:29;;;;;;;1.67;1.10;;;7.10;55.90;;;;;;5004240;28;20108;-73
2021/04/06 12:46:57;;;;;;;2.50;1.10;;;6.90;55.20;;;;;;5005629;28;20057;-74
2021/04/06 12:49:24;;;;;;;4.05;1.10;;;7.00;55.40;;;;;;5006285;28;20057;-73
2021/04/06 12:51:50;;;;;;;4.63;1.30;;;6.90;56.70;;;;;;5005170;28;20449;-73
2021/04/06 12:54:16;;;;;;;3.60;1.45;;;7.00;57.20;;;;;;5007011;28;20045;-73
2021/04/06 12:56:43;;;;;;;3.40;1.10;;;7.00;57.00;;;;;;5005876;28;20058;-73
2021/04/06 12:59:09;;;;;;;5.53;1.20;;;7.20;56.40;;;;;;5006169;28;20487;-73
2021/04/06 13:01:35;;;;;;;3.58;1.20;;;7.50;56.60;;;;;;5006875;28;20061;-73
2021/04/06 13:04:02;;;;;;;4.22;1.48;;;8.80;53.40;;;;;;5005745;28;20456;-73
2021/04/06 13:06:29;;;;;;;4.18;1.30;;;9.60;52.00;;;;;;5006785;28;20463;-73
2021/04/06 13:08:55;;;;;;;5.22;1.40;;;8.70;52.80;;;;;;5006400;28;20137;-72
2021/04/06 13:11:21;;;;;;;3.75;1.60;;;10.20;51.00;;;;;;5003917;28;20830;-73
2021/04/06 13:13:48;;;;;;;2.65;1.10;;;11.10;48.70;;;;;;5004838;28;20671;-73